sensor_id;sensor_type;location;lat;lon;timestamp;P1;durP1;ratioP1;P2;durP2;ratioP2
1577;SDS011;57623;53.608;10.004;2023-05-24T00:01:36;12.93;;;5.30;;
1577;SDS011;57623;53.608;10.004;2023-05-24T00:04:08;13.03;;;5.23;;
1577;SDS011;57623;53.608;10.004;2023-05-24T00:06:37;24.57;;;6.20;;
1577;SDS011;57623;53.608;10.004;2023-05-24T00:09:05;17.10;;;5.30;;
1577;SDS011;57623;53.608;10.004;2023-05-24T00:11:34;17.97;;;5.50;;
1577;SDS011;57623;53.608;10.004;2023-05-24T00:14:01;16.50;;;5.47;;
1577;SDS011;57623;53.608;10.004;2023-05-24T00:16:29;16.87;;;5.23;;
1577;SDS011;57623;53.608;10.004;2023-05-24T00:18:58;19.60;;;6.87;;
1577;SDS011;57623;53.608;10.004;2023-05-24T00:21:27;13.60;;;4.83;;
1577;SDS011;57623;53.608;10.004;2023-05-24T00:23:55;13.80;;;5.83;;
1577;SDS011;57623;53.608;10.004;2023-05-24T00:26:24;15.83;;;5.57;;
1577;SDS011;57623;53.608;10.004;2023-05-24T00:28:52;26.40;;;6.77;;
1577;SDS011;57623;53.608;10.004;2023-05-24T00:31:20;12.57;;;5.03;;
1577;SDS011;57623;53.608;10.004;2023-05-24T00:33:55;21.43;;;7.10;;
1577;SDS011;57623;53.608;10.004;2023-05-24T00:36:31;15.53;;;5.60;;
1577;SDS011;57623;53.608;10.004;2023-05-24T00:38:59;14.10;;;5.43;;
1577;SDS011;57623;53.608;10.004;2023-05-24T00:41:27;16.10;;;5.27;;
1577;SDS011;57623;53.608;10.004;2023-05-24T00:43:55;16.80;;;5.10;;
1577;SDS011;57623;53.608;10.004;2023-05-24T00:46:24;17.73;;;5.67;;
1577;SDS011;57623;53.608;10.004;2023-05-24T00:48:55;22.93;;;5.33;;
1577;SDS011;57623;53.608;10.004;2023-05-24T00:51:24;16.17;;;5.57;;
1577;SDS011;57623;53.608;10.004;2023-05-24T00:53:54;13.00;;;5.33;;
1577;SDS011;57623;53.608;10.004;2023-05-24T00:56:22;15.57;;;5.33;;
1577;SDS011;57623;53.608;10.004;2023-05-24T00:58:51;18.73;;;6.53;;
1577;SDS011;57623;53.608;10.004;2023-05-24T01:01:21;18.03;;;5.83;;
1577;SDS011;57623;53.608;10.004;2023-05-24T01:03:51;13.80;;;5.90;;
1577;SDS011;57623;53.608;10.004;2023-05-24T01:06:20;16.53;;;5.90;;
1577;SDS011;57623;53.608;10.004;2023-05-24T01:09:05;15.90;;;5.57;;
1577;SDS011;57623;53.608;10.004;2023-05-24T01:11:46;14.77;;;6.17;;
1577;SDS011;57623;53.608;10.004;2023-05-24T01:14:25;16.20;;;5.23;;
1577;SDS011;57623;53.608;10.004;2023-05-24T01:16:59;16.50;;;5.90;;
1577;SDS011;57623;53.608;10.004;2023-05-24T01:19:39;15.20;;;5.90;;
1577;SDS011;57623;53.608;10.004;2023-05-24T01:22:37;13.80;;;5.40;;
1577;SDS011;57623;53.608;10.004;2023-05-24T01:25:22;15.77;;;5.87;;
1577;SDS011;57623;53.608;10.004;2023-05-24T01:28:05;14.30;;;5.70;;
1577;SDS011;57623;53.608;10.004;2023-05-24T01:30:35;12.60;;;5.00;;
1577;SDS011;57623;53.608;10.004;2023-05-24T01:33:03;17.67;;;5.13;;
1577;SDS011;57623;53.608;10.004;2023-05-24T01:35:32;16.03;;;6.17;;
1577;SDS011;57623;53.608;10.004;2023-05-24T01:38:05;21.23;;;6.97;;
1577;SDS011;57623;53.608;10.004;2023-05-24T01:40:33;17.47;;;6.57;;
1577;SDS011;57623;53.608;10.004;2023-05-24T01:43:04;19.43;;;5.73;;
1577;SDS011;57623;53.608;10.004;2023-05-24T01:45:43;16.90;;;5.90;;
1577;SDS011;57623;53.608;10.004;2023-05-24T01:48:18;20.37;;;6.27;;
1577;SDS011;57623;53.608;10.004;2023-05-24T01:50:51;17.43;;;5.53;;
1577;SDS011;57623;53.608;10.004;2023-05-24T01:53:22;15.20;;;5.03;;
1577;SDS011;57623;53.608;10.004;2023-05-24T01:55:53;14.73;;;5.43;;
1577;SDS011;57623;53.608;10.004;2023-05-24T01:58:24;18.20;;;5.77;;
1577;SDS011;57623;53.608;10.004;2023-05-24T02:00:56;15.07;;;5.90;;
1577;SDS011;57623;53.608;10.004;2023-05-24T02:03:24;17.90;;;5.73;;
1577;SDS011;57623;53.608;10.004;2023-05-24T02:05:52;17.30;;;6.30;;
1577;SDS011;57623;53.608;10.004;2023-05-24T02:08:20;18.53;;;5.63;;
1577;SDS011;57623;53.608;10.004;2023-05-24T02:10:48;14.67;;;5.73;;
1577;SDS011;57623;53.608;10.004;2023-05-24T02:13:19;16.50;;;6.57;;
1577;SDS011;57623;53.608;10.004;2023-05-24T02:15:49;15.10;;;6.10;;
1577;SDS011;57623;53.608;10.004;2023-05-24T02:18:19;14.50;;;5.83;;
1577;SDS011;57623;53.608;10.004;2023-05-24T02:20:47;15.20;;;6.03;;
1577;SDS011;57623;53.608;10.004;2023-05-24T02:23:16;13.53;;;5.73;;
1577;SDS011;57623;53.608;10.004;2023-05-24T02:25:44;19.93;;;5.83;;
1577;SDS011;57623;53.608;10.004;2023-05-24T02:28:12;14.27;;;5.67;;
1577;SDS011;57623;53.608;10.004;2023-05-24T02:30:40;16.83;;;5.40;;
1577;SDS011;57623;53.608;10.004;2023-05-24T02:33:11;15.67;;;7.00;;
1577;SDS011;57623;53.608;10.004;2023-05-24T02:35:39;17.40;;;5.53;;
1577;SDS011;57623;53.608;10.004;2023-05-24T02:38:07;17.60;;;5.73;;
1577;SDS011;57623;53.608;10.004;2023-05-24T02:40:35;17.30;;;6.80;;
1577;SDS011;57623;53.608;10.004;2023-05-24T02:43:03;15.30;;;5.30;;
1577;SDS011;57623;53.608;10.004;2023-05-24T02:45:31;13.53;;;5.90;;
1577;SDS011;57623;53.608;10.004;2023-05-24T02:47:59;17.93;;;5.77;;
1577;SDS011;57623;53.608;10.004;2023-05-24T02:50:28;14.70;;;5.73;;
1577;SDS011;57623;53.608;10.004;2023-05-24T02:52:56;13.97;;;5.60;;
1577;SDS011;57623;53.608;10.004;2023-05-24T02:55:24;11.67;;;5.53;;
1577;SDS011;57623;53.608;10.004;2023-05-24T02:57:54;21.40;;;6.50;;
1577;SDS011;57623;53.608;10.004;2023-05-24T03:00:22;11.10;;;5.17;;
1577;SDS011;57623;53.608;10.004;2023-05-24T03:02:50;14.53;;;5.60;;
1577;SDS011;57623;53.608;10.004;2023-05-24T03:05:18;10.47;;;5.30;;
1577;SDS011;57623;53.608;10.004;2023-05-24T03:07:48;14.03;;;5.77;;
1577;SDS011;57623;53.608;10.004;2023-05-24T03:10:16;18.77;;;5.80;;
1577;SDS011;57623;53.608;10.004;2023-05-24T03:12:44;15.10;;;5.83;;
1577;SDS011;57623;53.608;10.004;2023-05-24T03:15:12;16.20;;;5.70;;
1577;SDS011;57623;53.608;10.004;2023-05-24T03:17:40;11.23;;;5.40;;
1577;SDS011;57623;53.608;10.004;2023-05-24T03:20:08;13.67;;;5.40;;
1577;SDS011;57623;53.608;10.004;2023-05-24T03:22:37;14.47;;;5.63;;
1577;SDS011;57623;53.608;10.004;2023-05-24T03:25:07;11.73;;;5.87;;
1577;SDS011;57623;53.608;10.004;2023-05-24T03:27:35;15.33;;;6.03;;
1577;SDS011;57623;53.608;10.004;2023-05-24T03:30:05;15.87;;;5.90;;
1577;SDS011;57623;53.608;10.004;2023-05-24T03:32:34;15.40;;;6.77;;
1577;SDS011;57623;53.608;10.004;2023-05-24T03:35:05;18.27;;;5.50;;
1577;SDS011;57623;53.608;10.004;2023-05-24T03:37:33;15.47;;;5.67;;
1577;SDS011;57623;53.608;10.004;2023-05-24T03:40:01;14.63;;;6.00;;
1577;SDS011;57623;53.608;10.004;2023-05-24T03:42:31;16.93;;;6.00;;
1577;SDS011;57623;53.608;10.004;2023-05-24T03:44:59;13.63;;;6.10;;
1577;SDS011;57623;53.608;10.004;2023-05-24T03:47:27;17.90;;;6.03;;
1577;SDS011;57623;53.608;10.004;2023-05-24T03:49:55;17.63;;;5.93;;
1577;SDS011;57623;53.608;10.004;2023-05-24T03:52:23;15.50;;;5.90;;
1577;SDS011;57623;53.608;10.004;2023-05-24T03:54:51;17.57;;;6.27;;
1577;SDS011;57623;53.608;10.004;2023-05-24T03:57:20;20.20;;;6.67;;
1577;SDS011;57623;53.608;10.004;2023-05-24T03:59:49;15.43;;;6.37;;
1577;SDS011;57623;53.608;10.004;2023-05-24T04:02:17;17.67;;;5.87;;
1577;SDS011;57623;53.608;10.004;2023-05-24T04:04:45;20.47;;;6.07;;
1577;SDS011;57623;53.608;10.004;2023-05-24T04:07:13;14.80;;;5.87;;
1577;SDS011;57623;53.608;10.004;2023-05-24T04:09:41;15.83;;;6.00;;
1577;SDS011;57623;53.608;10.004;2023-05-24T04:12:09;14.10;;;6.40;;
1577;SDS011;57623;53.608;10.004;2023-05-24T04:14:37;19.30;;;6.60;;
1577;SDS011;57623;53.608;10.004;2023-05-24T04:17:07;20.20;;;7.30;;
1577;SDS011;57623;53.608;10.004;2023-05-24T04:19:35;14.43;;;5.80;;
1577;SDS011;57623;53.608;10.004;2023-05-24T04:22:03;22.77;;;6.70;;
1577;SDS011;57623;53.608;10.004;2023-05-24T04:24:31;14.80;;;6.80;;
1577;SDS011;57623;53.608;10.004;2023-05-24T04:26:59;20.43;;;6.10;;
1577;SDS011;57623;53.608;10.004;2023-05-24T04:29:28;18.90;;;7.00;;
1577;SDS011;57623;53.608;10.004;2023-05-24T04:31:59;16.60;;;7.10;;
1577;SDS011;57623;53.608;10.004;2023-05-24T04:34:28;16.80;;;6.60;;
1577;SDS011;57623;53.608;10.004;2023-05-24T04:36:58;14.13;;;6.63;;
1577;SDS011;57623;53.608;10.004;2023-05-24T04:39:28;19.03;;;7.10;;
1577;SDS011;57623;53.608;10.004;2023-05-24T04:41:56;13.77;;;6.63;;
1577;SDS011;57623;53.608;10.004;2023-05-24T04:44:25;19.50;;;7.90;;
1577;SDS011;57623;53.608;10.004;2023-05-24T04:46:53;15.90;;;7.27;;
1577;SDS011;57623;53.608;10.004;2023-05-24T04:49:23;18.57;;;6.77;;
1577;SDS011;57623;53.608;10.004;2023-05-24T04:51:52;18.90;;;7.67;;
1577;SDS011;57623;53.608;10.004;2023-05-24T04:54:20;16.67;;;7.97;;
1577;SDS011;57623;53.608;10.004;2023-05-24T04:56:48;17.70;;;6.93;;
1577;SDS011;57623;53.608;10.004;2023-05-24T04:59:17;13.50;;;6.67;;
1577;SDS011;57623;53.608;10.004;2023-05-24T05:01:45;15.90;;;6.83;;
1577;SDS011;57623;53.608;10.004;2023-05-24T05:04:13;16.17;;;7.27;;
1577;SDS011;57623;53.608;10.004;2023-05-24T05:06:41;16.83;;;6.87;;
1577;SDS011;57623;53.608;10.004;2023-05-24T05:09:11;21.90;;;7.70;;
1577;SDS011;57623;53.608;10.004;2023-05-24T05:11:40;19.97;;;8.57;;
1577;SDS011;57623;53.608;10.004;2023-05-24T05:14:08;20.60;;;7.17;;
1577;SDS011;57623;53.608;10.004;2023-05-24T05:16:37;16.70;;;7.47;;
1577;SDS011;57623;53.608;10.004;2023-05-24T05:19:06;12.93;;;7.00;;
1577;SDS011;57623;53.608;10.004;2023-05-24T05:21:34;12.53;;;7.07;;
1577;SDS011;57623;53.608;10.004;2023-05-24T05:24:04;13.90;;;6.40;;
1577;SDS011;57623;53.608;10.004;2023-05-24T05:26:34;14.33;;;7.40;;
1577;SDS011;57623;53.608;10.004;2023-05-24T05:29:02;16.13;;;7.73;;
1577;SDS011;57623;53.608;10.004;2023-05-24T05:31:30;14.47;;;6.67;;
1577;SDS011;57623;53.608;10.004;2023-05-24T05:33:58;17.77;;;7.00;;
1577;SDS011;57623;53.608;10.004;2023-05-24T05:36:26;16.83;;;7.77;;
1577;SDS011;57623;53.608;10.004;2023-05-24T05:38:54;14.93;;;6.90;;
1577;SDS011;57623;53.608;10.004;2023-05-24T05:41:21;12.53;;;7.53;;
1577;SDS011;57623;53.608;10.004;2023-05-24T05:43:51;19.57;;;9.00;;
1577;SDS011;57623;53.608;10.004;2023-05-24T05:46:19;13.63;;;7.07;;
1577;SDS011;57623;53.608;10.004;2023-05-24T05:48:47;14.27;;;7.90;;
1577;SDS011;57623;53.608;10.004;2023-05-24T05:51:15;17.13;;;8.10;;
1577;SDS011;57623;53.608;10.004;2023-05-24T05:53:43;16.40;;;8.03;;
1577;SDS011;57623;53.608;10.004;2023-05-24T05:56:11;14.30;;;7.93;;
1577;SDS011;57623;53.608;10.004;2023-05-24T05:58:39;16.73;;;7.97;;
1577;SDS011;57623;53.608;10.004;2023-05-24T06:01:09;17.57;;;9.13;;
1577;SDS011;57623;53.608;10.004;2023-05-24T06:03:37;16.17;;;7.30;;
1577;SDS011;57623;53.608;10.004;2023-05-24T06:06:05;20.73;;;7.97;;
1577;SDS011;57623;53.608;10.004;2023-05-24T06:08:33;19.50;;;9.07;;
1577;SDS011;57623;53.608;10.004;2023-05-24T06:11:01;22.07;;;8.13;;
1577;SDS011;57623;53.608;10.004;2023-05-24T06:13:29;23.27;;;8.20;;
1577;SDS011;57623;53.608;10.004;2023-05-24T06:15:58;22.47;;;8.40;;
1577;SDS011;57623;53.608;10.004;2023-05-24T06:18:27;20.37;;;8.63;;
1577;SDS011;57623;53.608;10.004;2023-05-24T06:20:57;20.63;;;7.77;;
1577;SDS011;57623;53.608;10.004;2023-05-24T06:23:25;17.00;;;8.13;;
1577;SDS011;57623;53.608;10.004;2023-05-24T06:25:53;15.43;;;8.50;;
1577;SDS011;57623;53.608;10.004;2023-05-24T06:28:21;19.83;;;8.67;;
1577;SDS011;57623;53.608;10.004;2023-05-24T06:30:49;19.07;;;8.47;;
1577;SDS011;57623;53.608;10.004;2023-05-24T06:33:17;23.27;;;8.87;;
1577;SDS011;57623;53.608;10.004;2023-05-24T06:35:47;18.33;;;9.00;;
1577;SDS011;57623;53.608;10.004;2023-05-24T06:38:15;23.97;;;8.87;;
1577;SDS011;57623;53.608;10.004;2023-05-24T06:40:43;21.50;;;8.63;;
1577;SDS011;57623;53.608;10.004;2023-05-24T06:43:14;16.90;;;8.40;;
1577;SDS011;57623;53.608;10.004;2023-05-24T06:45:42;21.20;;;7.70;;
1577;SDS011;57623;53.608;10.004;2023-05-24T06:48:10;18.60;;;7.93;;
1577;SDS011;57623;53.608;10.004;2023-05-24T06:50:38;18.70;;;8.20;;
1577;SDS011;57623;53.608;10.004;2023-05-24T06:53:09;20.60;;;7.60;;
1577;SDS011;57623;53.608;10.004;2023-05-24T06:55:37;24.50;;;8.23;;
1577;SDS011;57623;53.608;10.004;2023-05-24T06:58:05;16.33;;;7.80;;
1577;SDS011;57623;53.608;10.004;2023-05-24T07:00:39;17.33;;;8.07;;
1577;SDS011;57623;53.608;10.004;2023-05-24T07:03:08;17.30;;;8.00;;
1577;SDS011;57623;53.608;10.004;2023-05-24T07:05:36;18.57;;;8.23;;
1577;SDS011;57623;53.608;10.004;2023-05-24T07:08:04;23.20;;;8.77;;
1577;SDS011;57623;53.608;10.004;2023-05-24T07:10:34;17.67;;;8.00;;
1577;SDS011;57623;53.608;10.004;2023-05-24T07:13:02;17.60;;;8.23;;
1577;SDS011;57623;53.608;10.004;2023-05-24T07:15:30;16.63;;;6.97;;
1577;SDS011;57623;53.608;10.004;2023-05-24T07:17:58;17.33;;;8.10;;
1577;SDS011;57623;53.608;10.004;2023-05-24T07:20:26;17.37;;;7.70;;
1577;SDS011;57623;53.608;10.004;2023-05-24T07:22:54;19.80;;;7.43;;
1577;SDS011;57623;53.608;10.004;2023-05-24T07:25:22;19.00;;;7.97;;
1577;SDS011;57623;53.608;10.004;2023-05-24T07:27:51;16.63;;;8.00;;
1577;SDS011;57623;53.608;10.004;2023-05-24T07:30:19;24.13;;;8.20;;
1577;SDS011;57623;53.608;10.004;2023-05-24T07:32:57;18.70;;;7.47;;
1577;SDS011;57623;53.608;10.004;2023-05-24T07:35:27;21.63;;;8.60;;
1577;SDS011;57623;53.608;10.004;2023-05-24T07:37:56;22.23;;;8.87;;
1577;SDS011;57623;53.608;10.004;2023-05-24T07:40:24;17.70;;;8.13;;
1577;SDS011;57623;53.608;10.004;2023-05-24T07:42:53;19.30;;;7.70;;
1577;SDS011;57623;53.608;10.004;2023-05-24T07:45:21;17.47;;;7.23;;
1577;SDS011;57623;53.608;10.004;2023-05-24T07:47:49;17.63;;;8.30;;
1577;SDS011;57623;53.608;10.004;2023-05-24T07:50:21;20.13;;;8.33;;
1577;SDS011;57623;53.608;10.004;2023-05-24T07:52:50;18.07;;;7.30;;
1577;SDS011;57623;53.608;10.004;2023-05-24T07:55:18;16.73;;;7.00;;
1577;SDS011;57623;53.608;10.004;2023-05-24T07:57:47;19.70;;;8.20;;
1577;SDS011;57623;53.608;10.004;2023-05-24T08:00:17;21.53;;;8.87;;
1577;SDS011;57623;53.608;10.004;2023-05-24T08:02:46;18.60;;;7.10;;
1577;SDS011;57623;53.608;10.004;2023-05-24T08:05:14;15.57;;;7.70;;
1577;SDS011;57623;53.608;10.004;2023-05-24T08:07:43;23.53;;;8.17;;
1577;SDS011;57623;53.608;10.004;2023-05-24T08:10:11;25.10;;;7.90;;
1577;SDS011;57623;53.608;10.004;2023-05-24T08:12:39;14.50;;;7.10;;
1577;SDS011;57623;53.608;10.004;2023-05-24T08:15:09;21.90;;;7.50;;
1577;SDS011;57623;53.608;10.004;2023-05-24T08:17:38;17.87;;;7.13;;
1577;SDS011;57623;53.608;10.004;2023-05-24T08:20:07;20.67;;;7.20;;
1577;SDS011;57623;53.608;10.004;2023-05-24T08:22:38;19.10;;;6.80;;
1577;SDS011;57623;53.608;10.004;2023-05-24T08:25:08;18.20;;;7.27;;
1577;SDS011;57623;53.608;10.004;2023-05-24T08:27:36;15.17;;;6.87;;
1577;SDS011;57623;53.608;10.004;2023-05-24T08:30:05;16.40;;;6.67;;
1577;SDS011;57623;53.608;10.004;2023-05-24T08:32:34;15.37;;;7.47;;
1577;SDS011;57623;53.608;10.004;2023-05-24T08:35:05;15.90;;;6.30;;
1577;SDS011;57623;53.608;10.004;2023-05-24T08:37:47;13.23;;;6.00;;
1577;SDS011;57623;53.608;10.004;2023-05-24T08:40:15;14.60;;;6.77;;
1577;SDS011;57623;53.608;10.004;2023-05-24T08:42:44;10.57;;;5.70;;
1577;SDS011;57623;53.608;10.004;2023-05-24T08:45:13;13.17;;;6.10;;
1577;SDS011;57623;53.608;10.004;2023-05-24T08:47:41;12.23;;;5.80;;
1577;SDS011;57623;53.608;10.004;2023-05-24T08:50:11;12.80;;;6.33;;
1577;SDS011;57623;53.608;10.004;2023-05-24T08:52:39;16.90;;;6.33;;
1577;SDS011;57623;53.608;10.004;2023-05-24T08:55:08;16.10;;;6.70;;
1577;SDS011;57623;53.608;10.004;2023-05-24T08:57:38;13.50;;;6.30;;
1577;SDS011;57623;53.608;10.004;2023-05-24T09:00:08;13.17;;;5.77;;
1577;SDS011;57623;53.608;10.004;2023-05-24T09:02:38;11.77;;;6.23;;
1577;SDS011;57623;53.608;10.004;2023-05-24T09:05:08;11.50;;;6.03;;
1577;SDS011;57623;53.608;10.004;2023-05-24T09:07:39;11.20;;;5.60;;
1577;SDS011;57623;53.608;10.004;2023-05-24T09:10:10;11.70;;;5.60;;
1577;SDS011;57623;53.608;10.004;2023-05-24T09:12:39;13.00;;;5.90;;
1577;SDS011;57623;53.608;10.004;2023-05-24T09:15:11;13.67;;;6.43;;
1577;SDS011;57623;53.608;10.004;2023-05-24T09:17:39;13.13;;;6.10;;
1577;SDS011;57623;53.608;10.004;2023-05-24T09:20:08;11.97;;;5.90;;
1577;SDS011;57623;53.608;10.004;2023-05-24T09:22:39;12.20;;;5.30;;
1577;SDS011;57623;53.608;10.004;2023-05-24T09:25:09;10.07;;;5.07;;
1577;SDS011;57623;53.608;10.004;2023-05-24T09:27:39;9.90;;;4.77;;
1577;SDS011;57623;53.608;10.004;2023-05-24T09:30:08;7.87;;;4.70;;
1577;SDS011;57623;53.608;10.004;2023-05-24T09:32:38;6.90;;;4.60;;
1577;SDS011;57623;53.608;10.004;2023-05-24T09:35:07;10.43;;;5.10;;
1577;SDS011;57623;53.608;10.004;2023-05-24T09:37:36;12.87;;;5.70;;
1577;SDS011;57623;53.608;10.004;2023-05-24T09:40:07;7.50;;;5.00;;
1577;SDS011;57623;53.608;10.004;2023-05-24T09:42:45;8.97;;;4.20;;
1577;SDS011;57623;53.608;10.004;2023-05-24T09:45:16;10.60;;;4.43;;
1577;SDS011;57623;53.608;10.004;2023-05-24T09:47:44;10.03;;;4.40;;
1577;SDS011;57623;53.608;10.004;2023-05-24T09:50:14;6.87;;;4.50;;
1577;SDS011;57623;53.608;10.004;2023-05-24T09:52:43;8.53;;;4.53;;
1577;SDS011;57623;53.608;10.004;2023-05-24T09:55:13;9.90;;;5.07;;
1577;SDS011;57623;53.608;10.004;2023-05-24T09:57:42;10.03;;;5.03;;
1577;SDS011;57623;53.608;10.004;2023-05-24T10:00:11;8.07;;;4.43;;
1577;SDS011;57623;53.608;10.004;2023-05-24T10:02:42;8.70;;;4.83;;
1577;SDS011;57623;53.608;10.004;2023-05-24T10:05:19;12.40;;;5.07;;
1577;SDS011;57623;53.608;10.004;2023-05-24T10:07:47;10.93;;;5.43;;
1577;SDS011;57623;53.608;10.004;2023-05-24T10:10:17;10.27;;;4.93;;
1577;SDS011;57623;53.608;10.004;2023-05-24T10:12:45;11.23;;;5.40;;
1577;SDS011;57623;53.608;10.004;2023-05-24T10:15:15;11.47;;;5.30;;
1577;SDS011;57623;53.608;10.004;2023-05-24T10:17:43;10.63;;;4.80;;
1577;SDS011;57623;53.608;10.004;2023-05-24T10:20:11;8.97;;;5.00;;
1577;SDS011;57623;53.608;10.004;2023-05-24T10:22:42;10.93;;;5.60;;
1577;SDS011;57623;53.608;10.004;2023-05-24T10:25:15;11.43;;;5.60;;
1577;SDS011;57623;53.608;10.004;2023-05-24T10:27:48;8.67;;;4.80;;
1577;SDS011;57623;53.608;10.004;2023-05-24T10:30:19;10.17;;;5.50;;
1577;SDS011;57623;53.608;10.004;2023-05-24T10:32:56;9.60;;;4.90;;
1577;SDS011;57623;53.608;10.004;2023-05-24T10:35:25;6.47;;;4.30;;
1577;SDS011;57623;53.608;10.004;2023-05-24T10:37:55;7.50;;;4.90;;
1577;SDS011;57623;53.608;10.004;2023-05-24T10:40:26;10.00;;;4.30;;
1577;SDS011;57623;53.608;10.004;2023-05-24T10:42:54;6.23;;;4.10;;
1577;SDS011;57623;53.608;10.004;2023-05-24T10:45:29;8.03;;;4.50;;
1577;SDS011;57623;53.608;10.004;2023-05-24T10:48:06;9.97;;;4.50;;
1577;SDS011;57623;53.608;10.004;2023-05-24T10:50:36;7.93;;;4.90;;
1577;SDS011;57623;53.608;10.004;2023-05-24T10:53:10;9.20;;;5.10;;
1577;SDS011;57623;53.608;10.004;2023-05-24T10:55:53;9.37;;;4.50;;
1577;SDS011;57623;53.608;10.004;2023-05-24T10:58:25;6.43;;;4.10;;
1577;SDS011;57623;53.608;10.004;2023-05-24T11:01:12;7.83;;;4.50;;
1577;SDS011;57623;53.608;10.004;2023-05-24T11:03:40;7.97;;;4.10;;
1577;SDS011;57623;53.608;10.004;2023-05-24T11:06:08;12.30;;;4.53;;
1577;SDS011;57623;53.608;10.004;2023-05-24T11:08:38;7.87;;;4.17;;
1577;SDS011;57623;53.608;10.004;2023-05-24T11:11:10;6.93;;;4.33;;
1577;SDS011;57623;53.608;10.004;2023-05-24T11:13:54;9.50;;;4.57;;
1577;SDS011;57623;53.608;10.004;2023-05-24T11:16:33;9.60;;;4.40;;
1577;SDS011;57623;53.608;10.004;2023-05-24T11:19:11;6.30;;;4.47;;
1577;SDS011;57623;53.608;10.004;2023-05-24T11:21:43;13.13;;;4.77;;
1577;SDS011;57623;53.608;10.004;2023-05-24T11:24:15;8.73;;;5.10;;
1577;SDS011;57623;53.608;10.004;2023-05-24T11:26:45;8.97;;;4.17;;
1577;SDS011;57623;53.608;10.004;2023-05-24T11:29:13;11.13;;;4.50;;
1577;SDS011;57623;53.608;10.004;2023-05-24T11:31:46;5.73;;;4.03;;
1577;SDS011;57623;53.608;10.004;2023-05-24T11:34:15;8.97;;;4.57;;
1577;SDS011;57623;53.608;10.004;2023-05-24T11:36:43;8.40;;;4.40;;
1577;SDS011;57623;53.608;10.004;2023-05-24T11:39:12;5.93;;;3.93;;
1577;SDS011;57623;53.608;10.004;2023-05-24T11:41:41;11.53;;;4.47;;
1577;SDS011;57623;53.608;10.004;2023-05-24T11:44:10;9.23;;;4.60;;
1577;SDS011;57623;53.608;10.004;2023-05-24T11:46:42;8.10;;;4.30;;
1577;SDS011;57623;53.608;10.004;2023-05-24T11:49:11;8.37;;;4.43;;
1577;SDS011;57623;53.608;10.004;2023-05-24T11:51:39;9.77;;;4.80;;
1577;SDS011;57623;53.608;10.004;2023-05-24T11:54:08;6.73;;;3.80;;
1577;SDS011;57623;53.608;10.004;2023-05-24T11:56:37;6.00;;;4.07;;
1577;SDS011;57623;53.608;10.004;2023-05-24T11:59:08;7.67;;;3.97;;
1577;SDS011;57623;53.608;10.004;2023-05-24T12:01:42;11.50;;;4.60;;
1577;SDS011;57623;53.608;10.004;2023-05-24T12:04:11;6.83;;;4.50;;
1577;SDS011;57623;53.608;10.004;2023-05-24T12:06:39;8.80;;;4.80;;
1577;SDS011;57623;53.608;10.004;2023-05-24T12:09:08;9.57;;;4.73;;
1577;SDS011;57623;53.608;10.004;2023-05-24T12:11:39;8.77;;;4.70;;
1577;SDS011;57623;53.608;10.004;2023-05-24T12:14:10;8.87;;;4.70;;
1577;SDS011;57623;53.608;10.004;2023-05-24T12:16:42;10.00;;;4.90;;
1577;SDS011;57623;53.608;10.004;2023-05-24T12:19:20;8.40;;;4.50;;
1577;SDS011;57623;53.608;10.004;2023-05-24T12:21:59;9.30;;;3.93;;
1577;SDS011;57623;53.608;10.004;2023-05-24T12:24:30;10.90;;;4.70;;
1577;SDS011;57623;53.608;10.004;2023-05-24T12:26:59;7.87;;;4.97;;
1577;SDS011;57623;53.608;10.004;2023-05-24T12:29:32;7.60;;;4.40;;
1577;SDS011;57623;53.608;10.004;2023-05-24T12:32:03;7.93;;;4.13;;
1577;SDS011;57623;53.608;10.004;2023-05-24T12:34:38;6.90;;;4.53;;
1577;SDS011;57623;53.608;10.004;2023-05-24T12:37:07;6.77;;;4.37;;
1577;SDS011;57623;53.608;10.004;2023-05-24T12:39:35;11.67;;;4.97;;
1577;SDS011;57623;53.608;10.004;2023-05-24T12:42:04;9.30;;;4.63;;
1577;SDS011;57623;53.608;10.004;2023-05-24T12:44:33;10.60;;;4.37;;
1577;SDS011;57623;53.608;10.004;2023-05-24T12:47:05;7.13;;;4.20;;
1577;SDS011;57623;53.608;10.004;2023-05-24T12:49:34;8.07;;;4.23;;
1577;SDS011;57623;53.608;10.004;2023-05-24T12:52:02;8.53;;;4.93;;
1577;SDS011;57623;53.608;10.004;2023-05-24T12:54:32;7.20;;;5.20;;
1577;SDS011;57623;53.608;10.004;2023-05-24T12:57:00;6.40;;;5.03;;
1577;SDS011;57623;53.608;10.004;2023-05-24T12:59:28;8.00;;;4.60;;
1577;SDS011;57623;53.608;10.004;2023-05-24T13:01:57;8.77;;;5.30;;
1577;SDS011;57623;53.608;10.004;2023-05-24T13:04:26;8.37;;;5.10;;
1577;SDS011;57623;53.608;10.004;2023-05-24T13:06:57;10.83;;;6.37;;
1577;SDS011;57623;53.608;10.004;2023-05-24T13:09:25;9.93;;;6.00;;
1577;SDS011;57623;53.608;10.004;2023-05-24T13:11:53;10.47;;;5.50;;
1577;SDS011;57623;53.608;10.004;2023-05-24T13:14:21;8.30;;;5.27;;
1577;SDS011;57623;53.608;10.004;2023-05-24T13:16:49;9.83;;;5.67;;
1577;SDS011;57623;53.608;10.004;2023-05-24T13:19:17;7.10;;;4.87;;
1577;SDS011;57623;53.608;10.004;2023-05-24T13:21:47;7.07;;;4.80;;
1577;SDS011;57623;53.608;10.004;2023-05-24T13:24:15;9.60;;;5.60;;
1577;SDS011;57623;53.608;10.004;2023-05-24T13:26:43;10.80;;;5.20;;
1577;SDS011;57623;53.608;10.004;2023-05-24T13:29:12;11.17;;;5.20;;
1577;SDS011;57623;53.608;10.004;2023-05-24T13:31:43;13.00;;;5.30;;
1577;SDS011;57623;53.608;10.004;2023-05-24T13:34:11;8.07;;;5.27;;
1577;SDS011;57623;53.608;10.004;2023-05-24T13:36:40;7.47;;;5.17;;
1577;SDS011;57623;53.608;10.004;2023-05-24T13:39:10;7.57;;;5.70;;
1577;SDS011;57623;53.608;10.004;2023-05-24T13:41:42;9.43;;;5.20;;
1577;SDS011;57623;53.608;10.004;2023-05-24T13:44:10;5.93;;;4.20;;
1577;SDS011;57623;53.608;10.004;2023-05-24T13:46:39;5.67;;;4.67;;
1577;SDS011;57623;53.608;10.004;2023-05-24T13:49:07;6.43;;;4.90;;
1577;SDS011;57623;53.608;10.004;2023-05-24T13:51:36;9.70;;;5.17;;
1577;SDS011;57623;53.608;10.004;2023-05-24T13:54:05;7.83;;;4.93;;
1577;SDS011;57623;53.608;10.004;2023-05-24T13:56:34;8.57;;;4.97;;
1577;SDS011;57623;53.608;10.004;2023-05-24T13:59:04;6.60;;;4.97;;
1577;SDS011;57623;53.608;10.004;2023-05-24T14:01:33;6.87;;;5.30;;
1577;SDS011;57623;53.608;10.004;2023-05-24T14:04:03;8.60;;;5.00;;
1577;SDS011;57623;53.608;10.004;2023-05-24T14:06:33;6.40;;;4.90;;
1577;SDS011;57623;53.608;10.004;2023-05-24T14:09:03;6.60;;;4.20;;
1577;SDS011;57623;53.608;10.004;2023-05-24T14:11:34;7.90;;;6.10;;
1577;SDS011;57623;53.608;10.004;2023-05-24T14:14:03;8.13;;;5.50;;
1577;SDS011;57623;53.608;10.004;2023-05-24T14:16:33;10.57;;;6.10;;
1577;SDS011;57623;53.608;10.004;2023-05-24T14:19:02;10.33;;;5.70;;
1577;SDS011;57623;53.608;10.004;2023-05-24T14:21:30;9.17;;;5.73;;
1577;SDS011;57623;53.608;10.004;2023-05-24T14:24:01;9.57;;;5.40;;
1577;SDS011;57623;53.608;10.004;2023-05-24T14:26:29;10.00;;;6.10;;
1577;SDS011;57623;53.608;10.004;2023-05-24T14:28:58;10.33;;;6.93;;
1577;SDS011;57623;53.608;10.004;2023-05-24T14:31:26;11.40;;;5.80;;
1577;SDS011;57623;53.608;10.004;2023-05-24T14:33:54;10.20;;;7.17;;
1577;SDS011;57623;53.608;10.004;2023-05-24T14:36:22;6.57;;;5.83;;
1577;SDS011;57623;53.608;10.004;2023-05-24T14:38:50;12.47;;;7.17;;
1577;SDS011;57623;53.608;10.004;2023-05-24T14:41:18;11.90;;;7.00;;
1577;SDS011;57623;53.608;10.004;2023-05-24T14:43:47;13.30;;;7.07;;
1577;SDS011;57623;53.608;10.004;2023-05-24T14:46:17;10.27;;;7.00;;
1577;SDS011;57623;53.608;10.004;2023-05-24T14:48:45;11.80;;;6.70;;
1577;SDS011;57623;53.608;10.004;2023-05-24T14:51:13;10.87;;;7.10;;
1577;SDS011;57623;53.608;10.004;2023-05-24T14:53:41;10.53;;;6.53;;